Time;durP1;ratioP1;P1;durP2;ratioP2;P2;SDS_P1;SDS_P2;PMS_P1;PMS_P2;Temp;Humidity;BMP_temperature;BMP_pressure;BME280_temperature;BME280_humidity;BME280_pressure;Samples;Min_cycle;Max_cycle;Signal;HPM_P1;HPM_P2
2022/09/06 00:03:51;;;;;;;9.40;5.30;;;12.50;99.90;;;;;;8351789;28;20471;-81
2022/09/06 00:07:52;;;;;;;6.93;5.63;;;12.50;99.90;;;;;;8328327;28;20025;-82
2022/09/06 00:11:53;;;;;;;9.15;5.32;;;12.50;99.90;;;;;;8337516;28;20021;-81
2022/09/06 00:15:53;;;;;;;7.78;6.25;;;12.40;99.90;;;;;;8330562;28;20033;-82
2022/09/06 00:19:54;;;;;;;9.25;6.50;;;12.40;99.90;;;;;;8340743;28;20075;-82
2022/09/06 00:23:55;;;;;;;8.35;6.25;;;12.50;99.90;;;;;;8334603;28;20495;-82
2022/09/06 00:27:57;;;;;;;6.72;5.60;;;12.60;99.90;;;;;;8326239;28;20491;-81
2022/09/06 00:31:58;;;;;;;6.80;5.63;;;12.60;99.90;;;;;;8328109;28;20048;-82
2022/09/06 00:35:59;;;;;;;8.80;5.70;;;12.50;99.90;;;;;;8353607;28;20025;-82
2022/09/06 00:40:00;;;;;;;6.90;5.10;;;12.40;99.90;;;;;;8332310;28;20051;-82
2022/09/06 00:44:00;;;;;;;5.90;4.72;;;12.40;99.90;;;;;;8332098;28;20065;-81
2022/09/06 00:48:04;;;;;;;8.40;4.95;;;12.40;99.90;;;;;;8347532;23;20046;-79
2022/09/06 00:52:11;;;;;;;5.82;4.57;;;12.30;99.90;;;;;;8293180;28;20021;-79
2022/09/06 00:56:12;;;;;;;5.25;4.60;;;12.10;99.90;;;;;;8298736;28;20034;-79
2022/09/06 01:00:14;;;;;;;6.75;4.72;;;12.00;99.90;;;;;;8305763;28;20029;-78
2022/09/06 01:04:15;;;;;;;6.38;4.90;;;12.20;99.90;;;;;;8288576;28;20025;-79
2022/09/06 01:08:32;;;;;;;7.47;5.25;;;12.40;99.90;;;;;;8305347;28;20033;-78
2022/09/06 01:13:12;;;;;;;6.20;4.63;;;12.50;99.90;;;;;;8293968;28;20103;-79
2022/09/06 01:17:46;;;;;;;6.30;4.75;;;12.40;99.90;;;;;;8291462;28;20510;-79
2022/09/06 01:22:12;;;;;;;7.63;5.15;;;12.20;99.90;;;;;;8275738;28;20418;-79
2022/09/06 01:26:34;;;;;;;11.70;5.20;;;12.20;99.90;;;;;;8264315;28;20041;-78
2022/09/06 01:30:42;;;;;;;6.68;5.03;;;12.10;99.90;;;;;;8286787;28;20554;-79
2022/09/06 01:34:54;;;;;;;6.30;4.75;;;12.10;99.90;;;;;;8298212;28;20034;-78
2022/09/06 01:38:55;;;;;;;8.55;5.68;;;12.00;99.90;;;;;;8288006;28;20391;-77
2022/09/06 01:42:56;;;;;;;7.38;5.40;;;12.00;99.90;;;;;;8293153;28;20032;-79
2022/09/06 01:47:21;;;;;;;5.97;5.22;;;12.10;99.90;;;;;;8282882;28;20496;-79
2022/09/06 01:51:34;;;;;;;7.88;5.45;;;12.30;99.90;;;;;;8297294;28;20049;-78
2022/09/06 01:56:02;;;;;;;7.70;5.25;;;12.30;99.90;;;;;;8295075;28;20030;-78
2022/09/06 02:00:08;;;;;;;7.15;5.45;;;12.30;99.90;;;;;;8283618;28;20022;-78
2022/09/06 02:04:27;;;;;;;6.43;5.00;;;12.30;99.90;;;;;;8286904;28;20026;-79
2022/09/06 02:08:34;;;;;;;9.10;5.35;;;12.40;99.90;;;;;;8286027;28;20076;-79
2022/09/06 02:12:38;;;;;;;6.78;4.80;;;12.30;99.90;;;;;;8305730;28;20030;-79
2022/09/06 02:16:41;;;;;;;7.35;5.00;;;12.10;99.90;;;;;;8301672;28;20053;-79
2022/09/06 02:20:51;;;;;;;6.85;5.15;;;12.10;99.90;;;;;;8313013;28;20097;-79
2022/09/06 02:24:55;;;;;;;6.37;5.23;;;12.40;99.90;;;;;;8303996;28;20391;-79
2022/09/06 02:28:56;;;;;;;5.95;5.20;;;12.40;99.90;;;;;;8293598;28;20029;-79
2022/09/06 02:33:01;;;;;;;5.90;5.05;;;12.50;99.90;;;;;;8304400;28;20026;-79
2022/09/06 02:37:02;;;;;;;8.73;5.25;;;12.30;99.90;;;;;;8298480;28;20462;-79
2022/09/06 02:41:04;;;;;;;8.07;5.47;;;12.00;99.90;;;;;;8303360;28;20022;-79
2022/09/06 02:45:05;;;;;;;13.18;5.82;;;11.90;99.90;;;;;;8299389;28;20029;-78
2022/09/06 02:49:05;;;;;;;7.35;4.75;;;11.90;99.90;;;;;;8295373;28;20041;-79
2022/09/06 02:53:11;;;;;;;9.73;5.38;;;12.20;99.90;;;;;;8298501;28;20029;-79
2022/09/06 02:57:12;;;;;;;8.80;6.25;;;12.20;99.90;;;;;;8303937;28;20022;-78
2022/09/06 03:01:12;;;;;;;7.90;5.63;;;12.00;99.90;;;;;;8311171;28;20052;-79
2022/09/06 03:05:13;;;;;;;7.35;5.35;;;11.80;99.90;;;;;;8295754;28;20030;-79
2022/09/06 03:09:13;;;;;;;6.22;5.20;;;11.70;99.90;;;;;;8298200;28;20022;-79
2022/09/06 03:13:14;;;;;;;8.00;6.15;;;11.70;99.90;;;;;;8300416;28;20430;-79
2022/09/06 03:17:15;;;;;;;9.73;5.97;;;11.80;99.90;;;;;;8294067;28;20033;-79
2022/09/06 03:21:15;;;;;;;7.03;5.88;;;11.80;99.90;;;;;;8303869;28;20040;-79
2022/09/06 03:25:16;;;;;;;6.60;5.63;;;11.80;99.90;;;;;;8302677;28;20400;-79
2022/09/06 03:29:16;;;;;;;8.20;6.30;;;11.90;99.90;;;;;;8297371;28;20029;-79
2022/09/06 03:33:18;;;;;;;10.10;6.22;;;12.30;99.90;;;;;;8293081;28;20042;-78
2022/09/06 03:37:19;;;;;;;7.07;5.30;;;12.50;99.90;;;;;;8295003;28;20496;-79
2022/09/06 03:41:19;;;;;;;9.52;5.13;;;12.60;99.90;;;;;;8295919;28;20029;-79
2022/09/06 03:45:20;;;;;;;8.30;5.35;;;12.40;99.90;;;;;;8292233;28;20030;-79
2022/09/06 03:49:20;;;;;;;7.60;5.93;;;12.30;99.90;;;;;;8288298;28;20045;-78
2022/09/06 03:53:23;;;;;;;8.75;5.78;;;12.20;99.90;;;;;;8283393;28;20025;-79
2022/09/06 03:57:24;;;;;;;10.80;6.13;;;12.30;99.90;;;;;;8296602;28;20049;-79
2022/09/06 04:01:25;;;;;;;7.18;5.72;;;12.60;99.90;;;;;;8292441;28;20026;-79
2022/09/06 04:05:25;;;;;;;8.75;5.75;;;12.70;99.90;;;;;;8297303;28;20036;-78
2022/09/06 04:09:26;;;;;;;9.98;6.00;;;13.00;99.90;;;;;;8280565;28;20283;-79
2022/09/06 04:13:28;;;;;;;10.15;5.88;;;13.00;99.90;;;;;;8296224;28;20052;-78
2022/09/06 04:17:28;;;;;;;9.65;5.95;;;12.90;99.90;;;;;;8295922;28;20131;-78
2022/09/06 04:21:29;;;;;;;6.32;5.72;;;12.90;99.90;;;;;;8285514;28;20030;-78
2022/09/06 04:25:30;;;;;;;7.50;6.47;;;12.80;99.90;;;;;;8287483;28;20034;-78
2022/09/06 04:29:31;;;;;;;6.43;5.65;;;12.80;99.90;;;;;;8300644;28;20399;-78
2022/09/06 04:33:33;;;;;;;11.15;7.15;;;12.80;99.90;;;;;;8291321;28;20049;-79
2022/09/06 04:37:34;;;;;;;8.25;6.32;;;12.70;99.90;;;;;;8299010;28;20041;-78
2022/09/06 04:41:34;;;;;;;8.73;5.95;;;12.80;99.90;;;;;;8281238;28;20025;-77
2022/09/06 04:45:35;;;;;;;6.28;5.35;;;12.80;99.90;;;;;;8285813;28;20033;-78
2022/09/06 04:49:35;;;;;;;6.43;5.65;;;12.80;99.90;;;;;;8286995;28;20034;-78
2022/09/06 04:53:36;;;;;;;6.65;5.88;;;12.50;99.90;;;;;;8296609;28;20105;-78
2022/09/06 04:57:36;;;;;;;8.88;6.85;;;12.60;99.90;;;;;;8283662;28;20404;-78
2022/09/06 05:01:37;;;;;;;10.13;7.60;;;13.10;99.90;;;;;;8297928;28;20026;-78
2022/09/06 05:05:37;;;;;;;9.38;7.32;;;13.40;99.90;;;;;;8287702;28;20026;-78
2022/09/06 05:09:38;;;;;;;11.10;8.00;;;13.60;99.90;;;;;;8289951;28;20041;-78
2022/09/06 05:13:39;;;;;;;10.35;7.57;;;13.50;99.90;;;;;;8289764;28;20026;-78
2022/09/06 05:17:40;;;;;;;12.27;7.40;;;13.40;99.90;;;;;;8285592;28;20084;-78
2022/09/06 05:21:41;;;;;;;10.63;8.25;;;13.60;99.90;;;;;;8289908;28;20029;-78
2022/09/06 05:25:41;;;;;;;9.57;7.45;;;13.60;99.90;;;;;;8288296;28;20026;-78
2022/09/06 05:29:42;;;;;;;10.23;7.80;;;13.90;99.90;;;;;;8296957;28;20029;-78
2022/09/06 05:33:43;;;;;;;10.98;6.60;;;14.40;99.90;;;;;;8287530;28;20125;-78
2022/09/06 05:37:43;;;;;;;11.50;7.85;;;14.40;99.90;;;;;;8295225;28;20026;-79
2022/09/06 05:41:44;;;;;;;13.32;7.88;;;14.20;99.90;;;;;;8284721;28;20036;-79
2022/09/06 05:45:45;;;;;;;9.77;6.43;;;14.30;99.90;;;;;;8295850;28;20045;-79
2022/09/06 05:49:45;;;;;;;7.13;5.95;;;14.70;99.90;;;;;;8288963;28;20037;-79
2022/09/06 05:53:46;;;;;;;8.40;6.72;;;14.60;99.90;;;;;;8296330;28;20034;-78
2022/09/06 05:57:46;;;;;;;9.65;7.10;;;14.30;99.90;;;;;;8296186;28;20022;-78
2022/09/06 06:01:51;;;;;;;11.00;7.88;;;14.30;99.90;;;;;;8289743;28;20022;-78
2022/09/06 06:05:52;;;;;;;11.38;7.53;;;14.40;99.90;;;;;;8289744;28;20022;-79
2022/09/06 06:09:52;;;;;;;9.90;8.27;;;14.70;99.90;;;;;;8306425;28;20443;-78
2022/09/06 06:13:53;;;;;;;10.52;7.70;;;15.30;99.90;;;;;;8286214;28;20013;-78
2022/09/06 06:17:54;;;;;;;8.65;7.38;;;15.50;99.90;;;;;;8296303;28;20022;-78
2022/09/06 06:21:55;;;;;;;8.52;5.90;;;15.60;99.90;;;;;;8296646;28;20030;-79
2022/09/06 06:25:55;;;;;;;7.45;5.85;;;15.70;99.90;;;;;;8290344;28;20026;-79
2022/09/06 06:29:56;;;;;;;8.10;5.93;;;15.90;99.90;;;;;;8291029;28;20048;-78
2022/09/06 06:33:57;;;;;;;8.13;6.20;;;16.00;99.90;;;;;;8286295;28;20021;-79
2022/09/06 06:37:58;;;;;;;8.23;5.85;;;16.00;99.90;;;;;;8296883;28;20579;-79
2022/09/06 06:41:58;;;;;;;8.40;5.47;;;16.00;99.90;;;;;;8291096;28;20034;-79
2022/09/06 06:45:59;;;;;;;7.60;5.32;;;16.20;99.90;;;;;;8290569;28;20022;-79
2022/09/06 06:54:05;;;;;;;7.72;5.40;;;16.60;99.90;;;;;;8286428;28;20045;-79
2022/09/06 06:58:05;;;;;;;8.35;5.20;;;16.70;99.90;;;;;;8286297;28;20381;-79
2022/09/06 07:02:06;;;;;;;8.82;5.75;;;16.80;99.90;;;;;;8264992;28;20026;-79
2022/09/06 07:06:07;;;;;;;7.38;5.07;;;17.20;99.90;;;;;;8268291;28;20026;-79
2022/09/06 07:10:08;;;;;;;6.60;5.90;;;17.80;99.90;;;;;;8269634;28;20431;-79
2022/09/06 07:14:08;;;;;;;14.30;5.18;;;18.20;99.90;;;;;;8269368;28;20022;-79
2022/09/06 07:18:09;;;;;;;8.48;4.95;;;18.30;99.90;;;;;;8268520;28;20484;-79
2022/09/06 07:22:09;;;;;;;5.60;5.00;;;18.50;99.90;;;;;;8269242;28;20410;-79
2022/09/06 07:26:18;;;;;;;5.97;4.68;;;18.80;99.90;;;;;;8266156;28;20072;-80
2022/09/06 07:30:19;;;;;;;5.97;4.75;;;18.90;99.90;;;;;;8269452;28;20027;-79
2022/09/06 07:34:20;;;;;;;7.80;4.75;;;19.00;99.90;;;;;;8268373;28;20029;-79
2022/09/06 07:38:21;;;;;;;6.10;3.20;;;19.50;99.90;;;;;;8284936;28;20022;-79
2022/09/06 07:42:21;;;;;;;5.68;2.58;;;20.10;99.90;;;;;;8268190;28;20034;-80
2022/09/06 07:46:22;;;;;;;5.15;1.90;;;20.60;99.90;;;;;;8268421;28;20026;-80
2022/09/06 07:50:23;;;;;;;5.88;3.05;;;21.10;99.90;;;;;;8275234;28;20057;-79
2022/09/06 07:54:23;;;;;;;3.25;2.30;;;21.50;99.90;;;;;;8330151;28;20018;-79
2022/09/06 07:58:24;;;;;;;4.00;2.00;;;22.40;99.90;;;;;;8331329;28;20017;-80
2022/09/06 08:02:24;;;;;;;2.25;1.45;;;22.90;99.90;;;;;;8333620;28;20040;-80
2022/09/06 08:06:27;;;;;;;2.58;1.30;;;23.90;99.90;;;;;;8331586;28;20048;-79
2022/09/06 08:10:27;;;;;;;2.78;1.40;;;24.20;99.90;;;;;;8331445;28;20017;-80
2022/09/06 08:14:28;;;;;;;4.03;1.42;;;24.30;99.90;;;;;;8330700;28;20025;-80
2022/09/06 08:18:28;;;;;;;2.70;1.20;;;24.20;99.90;;;;;;8332156;28;20031;-79
2022/09/06 08:22:32;;;;;;;8.65;1.98;;;24.20;99.90;;;;;;8315289;28;20060;-80
2022/09/06 08:26:35;;;;;;;4.78;1.60;;;24.30;99.90;;;;;;8321965;28;20025;-80
2022/09/06 08:30:36;;;;;;;2.28;1.50;;;24.30;99.90;;;;;;8332699;28;20021;-79
2022/09/06 08:34:36;;;;;;;3.17;1.40;;;24.90;99.90;;;;;;8332254;28;20137;-80
2022/09/06 08:38:37;;;;;;;5.68;1.42;;;25.20;99.90;;;;;;8332610;28;20072;-79
2022/09/06 08:42:39;;;;;;;3.92;1.70;;;25.10;99.90;;;;;;8332104;28;20040;-79
2022/09/06 08:46:41;;;;;;;4.00;1.35;;;24.90;99.90;;;;;;8330494;28;20022;-80
2022/09/06 08:50:50;;;;;;;3.30;1.45;;;25.10;99.90;;;;;;8330744;28;20037;-80
2022/09/06 08:55:03;;;;;;;4.57;1.60;;;25.60;99.90;;;;;;8328395;28;20048;-81
2022/09/06 08:59:05;;;;;;;2.20;1.50;;;26.10;99.90;;;;;;8321393;28;20128;-80
2022/09/06 09:03:09;;;;;;;4.82;1.67;;;25.80;99.90;;;;;;8312685;28;20483;-80
2022/09/06 09:07:31;;;;;;;4.28;2.03;;;25.80;99.90;;;;;;8313980;28;20032;-80
2022/09/06 09:11:34;;;;;;;4.80;1.35;;;26.10;99.90;;;;;;8332494;28;20028;-80
2022/09/06 09:15:36;;;;;;;4.82;1.73;;;26.10;99.90;;;;;;8332089;28;20024;-80
2022/09/06 09:19:40;;;;;;;5.63;2.00;;;26.40;99.90;;;;;;8325779;28;20049;-81
2022/09/06 09:23:41;;;;;;;3.95;2.03;;;26.80;99.90;;;;;;8313702;28;20117;-80
2022/09/06 09:27:43;;;;;;;5.18;1.85;;;27.20;99.90;;;;;;8329607;28;20021;-80
2022/09/06 09:31:49;;;;;;;4.80;2.15;;;27.60;99.90;;;;;;8309715;28;20026;-80
2022/09/06 09:35:50;;;;;;;4.28;2.10;;;28.00;99.90;;;;;;8309612;28;20032;-80
2022/09/06 09:39:54;;;;;;;5.53;1.83;;;27.80;99.90;;;;;;8309605;28;21675;-81
2022/09/06 09:44:08;;;;;;;3.78;1.90;;;28.10;99.90;;;;;;8321757;28;20075;-80
2022/09/06 09:48:25;;;;;;;4.82;1.83;;;28.10;99.90;;;;;;8317272;28;20060;-80
2022/09/06 09:52:28;;;;;;;4.60;1.70;;;28.20;99.90;;;;;;8325253;28;20399;-80
2022/09/06 09:56:51;;;;;;;8.23;2.70;;;28.60;99.90;;;;;;8304142;28;20026;-81
2022/09/06 10:01:16;;;;;;;3.80;1.60;;;28.70;99.90;;;;;;8315875;28;20538;-80
2022/09/06 10:05:19;;;;;;;6.25;1.88;;;27.90;99.90;;;;;;8309761;28;20050;-79
2022/09/06 10:09:28;;;;;;;12.07;4.00;;;27.40;99.90;;;;;;8317992;28;20395;-80
2022/09/06 10:13:30;;;;;;;4.25;1.83;;;27.60;99.90;;;;;;8308148;28;20036;-80
2022/09/06 10:17:32;;;;;;;7.57;1.83;;;28.10;99.90;;;;;;8324653;28;20039;-80
2022/09/06 10:21:32;;;;;;;4.45;1.80;;;28.70;99.90;;;;;;8307599;28;20029;-80
2022/09/06 10:25:38;;;;;;;3.95;1.50;;;29.10;99.90;;;;;;8308075;28;20087;-79
2022/09/06 10:30:04;;;;;;;14.05;2.30;;;29.10;99.90;;;;;;8323893;28;20045;-81
2022/09/06 10:34:25;;;;;;;7.10;1.98;;;29.00;99.90;;;;;;8292016;28;20033;-80
2022/09/06 10:38:29;;;;;;;;;;;28.90;99.90;;;;;;8322922;28;20100;-80
2022/09/06 10:42:51;;;;;;;9.23;2.10;;;28.70;99.90;;;;;;8322279;28;19967;-79
2022/09/06 10:47:07;;;;;;;9.15;2.05;;;29.00;99.90;;;;;;8327871;28;20033;-80
2022/09/06 10:51:32;;;;;;;6.43;1.80;;;29.70;99.90;;;;;;8310584;28;20033;-81
2022/09/06 10:55:35;;;;;;;4.68;1.85;;;30.20;99.90;;;;;;8317876;28;20662;-81
2022/09/06 10:59:50;;;;;;;8.55;2.03;;;29.90;99.90;;;;;;8321075;28;20487;-80
2022/09/06 11:03:51;;;;;;;4.38;1.90;;;29.30;99.90;;;;;;8309420;28;20034;-78
2022/09/06 11:08:06;;;;;;;8.70;2.00;;;28.60;99.90;;;;;;8306214;28;20023;-80
2022/09/06 11:12:37;;;;;;;8.25;2.22;;;28.10;99.90;;;;;;8309457;28;20106;-80
2022/09/06 11:16:49;;;;;;;5.73;2.20;;;27.90;99.90;;;;;;8314477;28;20049;-80
2022/09/06 11:21:11;;;;;;;6.95;2.40;;;29.00;99.90;;;;;;8324191;28;20029;-80
2022/09/06 11:25:55;;;;;;;9.60;2.13;;;29.30;99.90;;;;;;8296991;28;20048;-79
2022/09/06 11:29:58;;;;;;;5.68;1.98;;;29.50;99.90;;;;;;8330280;28;20022;-80
2022/09/06 11:34:11;;;;;;;5.55;2.30;;;29.60;99.90;;;;;;8323861;28;20022;-80
2022/09/06 11:38:14;;;;;;;3.70;1.92;;;29.70;99.90;;;;;;8295344;28;20628;-81
2022/09/06 11:42:39;;;;;;;6.05;1.92;;;29.50;99.90;;;;;;8301900;28;20029;-80
2022/09/06 11:46:39;;;;;;;13.38;2.67;;;29.20;99.90;;;;;;8323962;28;20629;-80
2022/09/06 11:50:52;;;;;;;5.20;2.15;;;28.90;99.90;;;;;;8307288;28;20026;-80
2022/09/06 11:54:53;;;;;;;7.60;2.00;;;28.90;99.90;;;;;;8299342;28;20022;-80
2022/09/06 11:59:06;;;;;;;7.88;2.00;;;28.90;99.90;;;;;;8304618;28;20025;-79
2022/09/06 12:03:09;;;;;;;3.78;2.40;;;28.30;99.90;;;;;;8293842;28;20061;-80
2022/09/06 12:07:11;;;;;;;5.85;2.10;;;28.30;99.90;;;;;;8330306;28;20010;-80
2022/09/06 12:11:31;;;;;;;5.18;2.40;;;28.00;99.90;;;;;;8331001;28;20017;-79
2022/09/06 12:15:45;;;;;;;7.67;2.60;;;28.00;99.90;;;;;;8302521;28;20108;-81
2022/09/06 12:19:58;;;;;;;6.72;2.08;;;27.80;99.90;;;;;;8321222;28;20021;-80
2022/09/06 12:23:59;;;;;;;11.38;2.55;;;27.90;99.90;;;;;;8300825;28;20026;-80
2022/09/06 12:28:18;;;;;;;10.43;2.72;;;27.40;99.90;;;;;;8302770;28;20021;-80
2022/09/06 12:32:23;;;;;;;10.20;2.65;;;27.10;99.90;;;;;;8314691;28;20109;-80
2022/09/06 12:36:30;;;;;;;8.13;2.70;;;26.90;99.90;;;;;;8321273;28;20104;-81
2022/09/06 12:40:36;;;;;;;7.68;2.67;;;26.80;99.90;;;;;;8317319;28;20025;-79
2022/09/06 12:44:41;;;;;;;9.60;2.47;;;26.60;99.90;;;;;;8319744;28;20421;-80
2022/09/06 12:48:57;;;;;;;6.22;2.67;;;26.40;99.90;;;;;;8311609;28;20021;-80
2022/09/06 12:53:00;;;;;;;7.97;2.90;;;26.40;99.90;;;;;;8332853;23;20053;-84
2022/09/06 12:57:15;;;;;;;8.02;2.88;;;26.60;99.90;;;;;;8306354;28;20442;-83
2022/09/06 13:01:32;;;;;;;6.90;2.78;;;26.80;99.90;;;;;;8313536;28;20080;-84
2022/09/06 13:05:32;;;;;;;7.28;2.53;;;26.90;99.90;;;;;;8289439;28;20041;-85
2022/09/06 13:09:33;;;;;;;5.72;2.95;;;27.10;99.90;;;;;;8293112;28;20480;-84
2022/09/06 13:13:34;;;;;;;6.70;2.70;;;27.20;99.90;;;;;;8292419;28;20022;-84
2022/09/06 13:17:37;;;;;;;8.93;3.17;;;27.20;99.90;;;;;;8293774;28;20454;-84
2022/09/06 13:21:40;;;;;;;6.65;3.03;;;27.10;99.90;;;;;;8291364;28;20026;-82
2022/09/06 13:25:49;;;;;;;7.03;2.55;;;27.10;99.90;;;;;;8292949;28;20037;-84
2022/09/06 13:29:58;;;;;;;8.77;3.05;;;26.70;99.90;;;;;;8292951;28;20030;-85
2022/09/06 13:33:59;;;;;;;6.40;2.90;;;26.70;99.90;;;;;;8290858;28;20045;-85
2022/09/06 13:38:19;;;;;;;9.15;3.25;;;26.60;99.90;;;;;;8293355;28;20054;-84
2022/09/06 13:42:35;;;;;;;6.47;2.72;;;26.50;99.90;;;;;;8305551;28;20052;-84
2022/09/06 13:46:36;;;;;;;7.68;2.70;;;26.60;99.90;;;;;;8293892;28;20033;-85
2022/09/06 13:50:37;;;;;;;8.80;2.75;;;26.70;99.90;;;;;;8292078;28;20038;-84
2022/09/06 13:54:38;;;;;;;5.30;2.40;;;26.70;99.90;;;;;;8292610;28;20500;-84
2022/09/06 13:58:39;;;;;;;7.15;3.05;;;26.80;99.90;;;;;;8292698;28;20209;-84
2022/09/06 14:02:40;;;;;;;4.40;2.47;;;26.90;99.90;;;;;;8291453;28;20037;-85
2022/09/06 14:06:41;;;;;;;9.75;2.70;;;26.90;99.90;;;;;;8290930;28;20077;-85
2022/09/06 14:10:42;;;;;;;8.43;2.72;;;27.10;99.90;;;;;;8298922;28;20104;-84
2022/09/06 14:14:43;;;;;;;7.63;2.45;;;27.30;99.90;;;;;;8285629;28;20026;-84
2022/09/06 14:18:44;;;;;;;5.75;2.65;;;27.40;99.90;;;;;;8300756;28;20053;-85
2022/09/06 14:22:45;;;;;;;7.95;2.72;;;27.50;99.90;;;;;;8277700;28;20026;-84
2022/09/06 14:26:46;;;;;;;5.68;2.70;;;27.70;99.90;;;;;;8279816;28;20446;-84
2022/09/06 14:30:46;;;;;;;8.95;2.92;;;28.00;99.90;;;;;;8307620;28;20025;-84
2022/09/06 14:34:47;;;;;;;6.15;2.50;;;28.30;99.90;;;;;;8296229;28;20057;-84
2022/09/06 14:38:48;;;;;;;9.30;3.03;;;28.10;99.90;;;;;;8282195;28;20030;-84
2022/09/06 14:42:49;;;;;;;10.05;3.05;;;27.50;99.90;;;;;;8297472;28;20050;-84
2022/09/06 14:46:52;;;;;;;12.50;3.35;;;27.10;99.90;;;;;;8299937;28;20403;-84
2022/09/06 14:50:52;;;;;;;9.05;2.97;;;26.70;99.90;;;;;;8278238;28;20030;-84
2022/09/06 14:54:53;;;;;;;8.27;2.80;;;26.70;99.90;;;;;;8301518;28;20084;-84
2022/09/06 14:58:56;;;;;;;12.95;3.70;;;26.50;99.90;;;;;;8284023;28;20025;-84
2022/09/06 15:02:56;;;;;;;10.43;3.53;;;26.50;99.90;;;;;;8281071;28;20021;-85
2022/09/06 15:06:57;;;;;;;8.68;3.35;;;26.70;99.90;;;;;;8299076;28;20065;-84
2022/09/06 15:10:58;;;;;;;4.10;3.00;;;26.70;99.90;;;;;;8284221;28;20014;-84
2022/09/06 15:14:58;;;;;;;8.98;3.28;;;26.70;99.90;;;;;;8286077;28;20083;-84
2022/09/06 15:19:01;;;;;;;7.22;2.90;;;26.70;99.90;;;;;;8284067;28;20040;-84
2022/09/06 15:23:03;;;;;;;15.93;9.00;;;26.30;99.90;;;;;;8287737;28;20080;-84
2022/09/06 15:27:03;;;;;;;7.22;2.85;;;25.80;99.90;;;;;;8282341;28;20022;-84
2022/09/06 15:31:06;;;;;;;11.82;5.78;;;25.40;99.90;;;;;;8311768;28;20099;-84
2022/09/06 15:35:06;;;;;;;9.00;3.35;;;25.20;99.90;;;;;;8307704;28;20026;-84
2022/09/06 15:39:07;;;;;;;11.18;3.30;;;25.10;99.90;;;;;;8285066;28;20116;-84
2022/09/06 15:43:07;;;;;;;9.70;3.55;;;25.20;99.90;;;;;;8281769;28;20117;-84
2022/09/06 15:47:09;;;;;;;9.63;3.58;;;25.00;99.90;;;;;;8304872;28;20082;-84
2022/09/06 15:51:14;;;;;;;8.32;3.20;;;24.90;99.90;;;;;;8285946;28;20120;-84
2022/09/06 15:59:34;;;;;;;7.30;3.42;;;24.50;99.90;;;;;;8297300;28;20411;-84
2022/09/06 16:03:40;;;;;;;10.95;3.30;;;24.40;99.90;;;;;;8305940;28;20029;-83
2022/09/06 16:07:43;;;;;;;7.88;3.03;;;24.20;99.90;;;;;;8297952;28;20411;-84
2022/09/06 16:11:44;;;;;;;6.40;3.00;;;24.10;99.90;;;;;;8306077;28;20036;-84
2022/09/06 16:15:58;;;;;;;6.40;3.25;;;23.80;99.90;;;;;;8299106;28;20030;-84
2022/09/06 16:20:00;;;;;;;9.02;3.60;;;23.80;99.90;;;;;;8310691;28;20468;-84
2022/09/06 16:24:06;;;;;;;9.80;3.53;;;23.50;99.90;;;;;;8288749;28;20025;-84
2022/09/06 16:28:07;;;;;;;9.65;3.88;;;23.20;99.90;;;;;;8311950;28;20080;-84
2022/09/06 16:32:08;;;;;;;14.98;4.65;;;23.20;99.90;;;;;;8306121;28;20029;-84
2022/09/06 16:36:09;;;;;;;12.82;4.78;;;23.40;99.90;;;;;;8297273;28;20022;-84
2022/09/06 16:40:10;;;;;;;7.88;3.83;;;23.30;99.90;;;;;;8285079;28;20055;-83
2022/09/06 16:44:14;;;;;;;10.80;3.78;;;23.10;99.90;;;;;;8312825;28;20116;-84
2022/09/06 16:48:15;;;;;;;6.28;3.40;;;23.10;99.90;;;;;;8284436;28;20495;-84
2022/09/06 16:52:15;;;;;;;7.63;3.95;;;23.20;99.90;;;;;;8284363;28;20054;-84
2022/09/06 16:56:20;;;;;;;10.88;3.85;;;23.10;99.90;;;;;;8282553;28;20438;-83
2022/09/06 17:00:20;;;;;;;7.55;3.85;;;23.10;99.90;;;;;;8289153;28;20524;-83
2022/09/06 17:04:22;;;;;;;6.38;4.15;;;23.30;99.90;;;;;;8303879;28;20029;-84
2022/09/06 17:08:22;;;;;;;10.18;4.65;;;23.30;99.90;;;;;;8308926;28;20101;-83
2022/09/06 17:12:23;;;;;;;10.80;5.22;;;23.10;99.90;;;;;;8275662;28;20076;-84
2022/09/06 17:21:03;;;;;;;8.20;4.60;;;22.80;99.90;;;;;;8279215;28;20808;-84
2022/09/06 17:25:05;;;;;;;9.35;4.63;;;22.50;99.90;;;;;;8279048;28;20549;-83
2022/09/06 17:29:06;;;;;;;9.52;4.45;;;22.20;99.90;;;;;;8277126;28;20393;-84
2022/09/06 17:33:07;;;;;;;7.65;4.50;;;22.00;99.90;;;;;;8297401;28;20393;-84
2022/09/06 17:37:08;;;;;;;9.10;5.32;;;21.60;99.90;;;;;;8297382;28;20022;-84
2022/09/06 17:41:16;;;;;;;7.75;4.38;;;21.20;99.90;;;;;;8298761;28;20026;-84
2022/09/06 17:45:17;;;;;;;8.68;4.18;;;21.00;99.90;;;;;;8300531;28;20025;-84
2022/09/06 17:49:18;;;;;;;9.20;4.25;;;20.80;99.90;;;;;;8282323;28;20137;-83
2022/09/06 17:53:18;;;;;;;6.93;4.28;;;20.80;99.90;;;;;;8281663;28;20084;-84
2022/09/06 17:57:19;;;;;;;9.05;4.45;;;20.70;99.90;;;;;;8280372;28;20029;-84
2022/09/06 18:01:21;;;;;;;10.27;4.65;;;20.30;99.90;;;;;;8295032;28;20380;-84
2022/09/06 18:05:22;;;;;;;12.95;5.50;;;20.00;99.90;;;;;;8277970;28;20018;-84
2022/09/06 18:09:23;;;;;;;9.93;5.85;;;19.50;99.90;;;;;;8282638;28;20030;-83
2022/09/06 18:13:23;;;;;;;10.82;5.72;;;19.10;99.90;;;;;;8310916;28;20364;-84
2022/09/06 18:17:25;;;;;;;10.50;5.75;;;19.00;99.90;;;;;;8278671;28;20029;-83
2022/09/06 18:21:27;;;;;;;7.63;5.22;;;19.10;99.90;;;;;;8281928;28;20030;-84
2022/09/06 18:25:28;;;;;;;9.90;5.43;;;19.10;99.90;;;;;;8305527;28;20026;-84
2022/09/06 18:29:29;;;;;;;17.10;5.97;;;19.20;99.90;;;;;;8290489;28;20546;-84
2022/09/06 18:33:29;;;;;;;10.07;5.22;;;18.90;99.90;;;;;;8299371;28;20045;-83
2022/09/06 18:37:32;;;;;;;8.02;5.50;;;18.80;99.90;;;;;;8295478;28;20446;-84
2022/09/06 18:46:02;;;;;;;9.07;5.80;;;18.40;99.90;;;;;;8314647;28;20049;-84
2022/09/06 18:50:03;;;;;;;14.70;6.40;;;18.20;99.90;;;;;;8294469;28;20029;-84
2022/09/06 18:58:08;;;;;;;9.88;6.50;;;18.20;99.90;;;;;;8354958;28;20053;-79
2022/09/06 19:02:08;;;;;;;9.73;6.05;;;18.10;99.90;;;;;;8344436;28;20685;-79
2022/09/06 19:06:12;;;;;;;11.45;6.10;;;18.20;99.90;;;;;;8329245;28;20033;-79
2022/09/06 19:10:12;;;;;;;8.88;5.78;;;18.20;99.90;;;;;;8326301;28;20030;-80
2022/09/06 19:14:13;;;;;;;8.57;5.82;;;18.00;99.90;;;;;;8321093;28;20549;-79
2022/09/06 19:18:14;;;;;;;11.75;6.85;;;17.70;99.90;;;;;;8303069;28;20411;-79
2022/09/06 19:22:14;;;;;;;10.13;6.38;;;17.70;99.90;;;;;;8310145;28;20028;-79
2022/09/06 19:26:18;;;;;;;10.75;6.25;;;17.70;99.90;;;;;;8299015;28;20500;-80
2022/09/06 19:30:18;;;;;;;11.15;6.32;;;17.50;99.90;;;;;;8300959;28;20108;-79
2022/09/06 19:34:19;;;;;;;11.65;7.85;;;17.10;99.90;;;;;;8312622;28;20445;-80
2022/09/06 19:38:21;;;;;;;10.85;6.90;;;17.00;99.90;;;;;;8326008;28;20029;-79
2022/09/06 19:42:22;;;;;;;15.52;6.88;;;17.30;99.90;;;;;;8323945;28;20025;-79
2022/09/06 19:46:23;;;;;;;8.77;6.70;;;17.20;99.90;;;;;;8326519;28;20095;-79
2022/09/06 19:50:23;;;;;;;10.75;7.10;;;17.20;99.90;;;;;;8326734;28;20095;-80
2022/09/06 19:54:24;;;;;;;14.68;7.65;;;16.90;99.90;;;;;;8326002;28;20079;-79
2022/09/06 19:58:26;;;;;;;13.90;7.90;;;16.70;99.90;;;;;;8311108;28;20033;-79
2022/09/06 20:02:26;;;;;;;10.85;7.63;;;16.60;99.90;;;;;;8326452;28;20491;-79
2022/09/06 20:06:27;;;;;;;12.88;8.00;;;16.40;99.90;;;;;;8312612;28;20032;-79
2022/09/06 20:10:28;;;;;;;12.23;8.25;;;16.40;99.90;;;;;;8319948;28;20095;-79
2022/09/06 20:14:29;;;;;;;15.48;8.18;;;16.50;99.90;;;;;;8315745;28;20110;-79
2022/09/06 20:18:29;;;;;;;13.95;7.97;;;16.30;99.90;;;;;;8325912;28;20064;-80
2022/09/06 20:22:30;;;;;;;14.27;8.23;;;16.20;99.90;;;;;;8319527;28;20101;-79
2022/09/06 20:26:30;;;;;;;14.52;8.32;;;16.10;99.90;;;;;;8320174;28;20623;-79
2022/09/06 20:30:32;;;;;;;12.55;7.38;;;16.50;99.90;;;;;;8311493;28;20029;-79
2022/09/06 20:34:32;;;;;;;12.82;7.97;;;16.30;99.90;;;;;;8302668;28;20164;-79
2022/09/06 20:38:36;;;;;;;14.00;8.07;;;16.30;99.90;;;;;;8320519;28;20029;-79
2022/09/06 20:42:40;;;;;;;14.40;8.50;;;16.20;99.90;;;;;;8311187;28;20596;-79
2022/09/06 20:46:41;;;;;;;15.13;9.20;;;16.10;99.90;;;;;;8305148;28;20029;-79
2022/09/06 20:50:41;;;;;;;11.48;8.90;;;16.20;99.90;;;;;;8298891;28;20025;-79
2022/09/06 20:54:42;;;;;;;10.98;9.00;;;16.10;99.90;;;;;;8304716;28;20029;-79
2022/09/06 20:58:51;;;;;;;13.80;8.82;;;16.00;99.90;;;;;;8326557;28;20074;-79
2022/09/06 21:02:51;;;;;;;14.05;7.65;;;16.10;99.90;;;;;;8326572;28;20031;-79
2022/09/06 21:06:52;;;;;;;19.48;7.97;;;16.10;99.90;;;;;;8306967;28;20014;-79
2022/09/06 21:11:01;;;;;;;12.35;9.20;;;16.10;99.90;;;;;;8307393;28;20041;-79
2022/09/06 21:15:01;;;;;;;10.40;7.60;;;15.90;99.90;;;;;;8320693;28;20021;-79
2022/09/06 21:19:05;;;;;;;15.63;8.82;;;16.00;99.90;;;;;;8326011;28;20029;-79
2022/09/06 21:23:05;;;;;;;15.63;8.55;;;16.00;99.90;;;;;;8316091;28;20111;-79
2022/09/06 21:27:06;;;;;;;15.57;8.70;;;16.00;99.90;;;;;;8311177;28;20029;-81
2022/09/06 21:31:12;;;;;;;12.77;9.27;;;16.00;99.90;;;;;;8320196;28;20108;-79